Time;durP1;ratioP1;P1;durP2;ratioP2;P2;SDS_P1;SDS_P2;PMS_P1;PMS_P2;Temp;Humidity;BMP_temperature;BMP_pressure;BME280_temperature;BME280_humidity;BME280_pressure;Samples;Min_cycle;Max_cycle;Signal;HPM_P1;HPM_P2
2023/05/25 00:02:23;;;;;;;7.35;3.30;;;12.80;96.90;;;;;;5073266;28;20479;-84
2023/05/25 00:04:49;;;;;;;7.03;3.60;;;12.80;97.00;;;;;;5056405;28;20047;-85
2023/05/25 00:07:15;;;;;;;6.80;3.10;;;12.80;97.00;;;;;;5085355;28;20043;-85
2023/05/25 00:09:45;;;;;;;5.82;3.17;;;12.80;97.00;;;;;;5057724;28;20037;-84
2023/05/25 00:12:11;;;;;;;7.32;3.45;;;12.70;97.00;;;;;;5061426;28;20115;-85
2023/05/25 00:14:37;;;;;;;12.32;3.42;;;12.70;97.00;;;;;;5053601;28;20036;-84
2023/05/25 00:17:02;;;;;;;6.95;3.47;;;12.70;97.00;;;;;;5060555;28;20464;-85
2023/05/25 00:19:31;;;;;;;5.78;3.20;;;12.70;97.00;;;;;;5085243;28;20039;-84
2023/05/25 00:22:00;;;;;;;9.07;3.83;;;12.70;97.00;;;;;;5079326;28;20013;-84
2023/05/25 00:24:30;;;;;;;5.70;2.97;;;12.80;97.00;;;;;;5097622;28;20032;-83
2023/05/25 00:26:56;;;;;;;7.07;3.30;;;12.70;97.00;;;;;;5062137;28;20021;-84
2023/05/25 00:29:22;;;;;;;6.38;3.08;;;12.70;97.10;;;;;;5096762;28;20033;-83
2023/05/25 00:31:49;;;;;;;9.13;3.58;;;12.70;97.20;;;;;;5087670;28;20158;-85
2023/05/25 00:34:15;;;;;;;6.07;3.50;;;12.70;97.20;;;;;;5050959;28;20021;-85
2023/05/25 00:36:47;;;;;;;4.75;3.40;;;12.60;97.20;;;;;;5053555;28;20056;-86
2023/05/25 00:39:14;;;;;;;7.47;3.17;;;12.60;97.20;;;;;;5047589;28;20495;-85
2023/05/25 00:41:43;;;;;;;5.30;3.25;;;12.60;97.20;;;;;;5066529;28;20021;-85
2023/05/25 00:44:09;;;;;;;7.72;3.42;;;12.60;97.20;;;;;;5074055;28;20027;-84
2023/05/25 00:46:39;;;;;;;8.50;3.50;;;12.60;97.20;;;;;;5054088;28;20098;-85
2023/05/25 00:49:04;;;;;;;6.68;3.88;;;12.60;97.30;;;;;;5050453;28;20375;-85
2023/05/25 00:51:35;;;;;;;7.82;3.22;;;12.60;97.30;;;;;;5064543;28;20116;-85
2023/05/25 00:54:01;;;;;;;7.45;3.53;;;12.60;97.30;;;;;;5057000;28;20025;-86
2023/05/25 00:56:31;;;;;;;7.50;3.40;;;12.50;97.30;;;;;;5053582;28;20017;-84
2023/05/25 00:59:05;;;;;;;8.43;3.67;;;12.50;97.40;;;;;;5055357;28;20036;-84
2023/05/25 01:01:38;;;;;;;8.30;3.50;;;12.40;97.40;;;;;;5054151;28;20031;-83
2023/05/25 01:04:06;;;;;;;10.73;3.92;;;12.40;97.40;;;;;;5061911;28;20027;-84
2023/05/25 01:06:33;;;;;;;6.50;3.50;;;12.40;97.50;;;;;;5051920;28;20033;-84
2023/05/25 01:09:03;;;;;;;6.80;3.33;;;12.30;97.50;;;;;;5058221;28;20067;-84
2023/05/25 01:11:35;;;;;;;6.40;3.63;;;12.30;97.60;;;;;;5051709;28;20083;-85
2023/05/25 01:14:02;;;;;;;9.73;3.55;;;12.30;97.60;;;;;;5072803;28;20075;-84
2023/05/25 01:16:28;;;;;;;7.53;3.67;;;12.30;97.60;;;;;;5053539;28;20020;-85
2023/05/25 01:18:54;;;;;;;10.88;4.10;;;12.20;97.60;;;;;;5059399;28;20033;-84
2023/05/25 01:21:36;;;;;;;8.63;3.88;;;12.20;97.70;;;;;;5064414;28;20487;-84
2023/05/25 01:24:07;;;;;;;7.35;3.47;;;12.20;97.70;;;;;;5060740;28;20036;-84
2023/05/25 01:26:40;;;;;;;8.82;3.70;;;12.10;97.80;;;;;;5061301;28;20013;-84
2023/05/25 01:29:07;;;;;;;6.47;3.63;;;12.10;97.80;;;;;;5064338;28;20044;-85
2023/05/25 01:31:37;;;;;;;8.45;3.75;;;12.10;97.80;;;;;;5081579;28;20051;-85
2023/05/25 01:34:04;;;;;;;5.13;3.53;;;12.10;97.90;;;;;;5052902;28;20025;-85
2023/05/25 01:36:30;;;;;;;6.65;3.67;;;12.10;97.90;;;;;;5049218;28;20361;-84
2023/05/25 01:38:57;;;;;;;6.93;3.67;;;12.10;97.90;;;;;;5065887;28;20045;-85
2023/05/25 01:41:22;;;;;;;7.13;3.90;;;12.10;98.00;;;;;;5056336;28;20021;-85
2023/05/25 01:43:48;;;;;;;7.45;4.05;;;12.00;98.00;;;;;;5069007;28;20034;-84
2023/05/25 01:46:44;;;;;;;8.57;3.55;;;11.90;98.00;;;;;;5049567;28;20173;-85
2023/05/25 01:49:40;;;;;;;7.78;3.75;;;12.00;98.10;;;;;;5069720;28;20468;-84
2023/05/25 01:52:19;;;;;;;9.15;4.13;;;11.90;98.10;;;;;;5066483;28;20016;-84
2023/05/25 01:54:56;;;;;;;13.48;4.30;;;11.90;98.10;;;;;;5063101;28;20017;-85
2023/05/25 01:57:24;;;;;;;9.18;4.35;;;11.90;98.20;;;;;;5081581;28;20041;-84
2023/05/25 01:59:56;;;;;;;6.75;3.95;;;11.90;98.20;;;;;;5084675;28;20024;-84
2023/05/25 02:02:22;;;;;;;5.38;3.67;;;11.90;98.30;;;;;;5085126;28;20110;-84
2023/05/25 02:04:48;;;;;;;6.13;3.60;;;11.90;98.30;;;;;;5087310;28;20025;-85
2023/05/25 02:07:14;;;;;;;7.70;4.30;;;11.90;98.30;;;;;;5066854;28;20017;-85
2023/05/25 02:09:40;;;;;;;7.70;4.18;;;11.90;98.40;;;;;;5063895;28;20027;-84
2023/05/25 02:12:06;;;;;;;8.40;3.67;;;11.90;98.40;;;;;;5046716;28;20169;-84
2023/05/25 02:14:32;;;;;;;7.43;4.00;;;11.80;98.40;;;;;;5070013;28;20025;-84
2023/05/25 02:17:00;;;;;;;8.15;4.05;;;11.80;98.40;;;;;;5063256;28;20017;-84
2023/05/25 02:19:26;;;;;;;7.22;3.72;;;11.80;98.50;;;;;;5096665;28;20059;-84
2023/05/25 02:21:52;;;;;;;8.57;4.18;;;11.80;98.50;;;;;;5067278;28;20460;-84
2023/05/25 02:24:17;;;;;;;7.43;3.95;;;11.80;98.50;;;;;;5045150;28;20041;-84
2023/05/25 02:26:43;;;;;;;6.78;3.67;;;11.80;98.50;;;;;;5066814;28;20053;-84
2023/05/25 02:29:09;;;;;;;6.97;3.72;;;11.80;98.50;;;;;;5061314;28;20048;-84
2023/05/25 02:31:35;;;;;;;5.85;3.55;;;11.80;98.50;;;;;;5071216;28;20028;-84
2023/05/25 02:34:01;;;;;;;6.45;3.85;;;11.80;98.60;;;;;;5053927;28;20031;-84
2023/05/25 02:36:27;;;;;;;9.30;3.90;;;11.80;98.60;;;;;;5074973;28;20052;-84
2023/05/25 02:38:55;;;;;;;6.90;3.95;;;11.80;98.60;;;;;;5058341;28;20076;-84
2023/05/25 02:41:23;;;;;;;8.55;4.07;;;11.80;98.60;;;;;;5065209;28;20048;-84
2023/05/25 02:43:49;;;;;;;8.57;4.20;;;11.70;98.60;;;;;;5040859;28;20037;-84
2023/05/25 02:46:15;;;;;;;9.85;4.15;;;11.70;98.70;;;;;;5072346;28;20116;-84
2023/05/25 02:48:43;;;;;;;8.30;4.35;;;11.70;98.80;;;;;;5075075;28;20059;-84
2023/05/25 02:51:09;;;;;;;7.90;3.75;;;11.70;98.80;;;;;;5055273;28;20033;-84
2023/05/25 02:53:35;;;;;;;7.18;4.05;;;11.60;98.80;;;;;;5066710;28;20032;-85
2023/05/25 02:56:03;;;;;;;10.18;4.90;;;11.70;98.90;;;;;;5057743;28;20044;-84
2023/05/25 02:58:29;;;;;;;9.75;4.32;;;11.60;98.90;;;;;;5068396;28;20074;-84
2023/05/25 03:00:55;;;;;;;10.52;4.00;;;11.60;99.00;;;;;;5076008;28;20111;-84
2023/05/25 03:03:21;;;;;;;9.50;4.35;;;11.60;99.00;;;;;;5067393;28;20521;-84
2023/05/25 03:05:47;;;;;;;9.80;4.10;;;11.50;99.10;;;;;;5068949;28;20024;-84
2023/05/25 03:08:16;;;;;;;8.73;4.53;;;11.50;99.20;;;;;;5056612;28;20056;-84
2023/05/25 03:10:44;;;;;;;8.88;4.15;;;11.50;99.30;;;;;;5074630;28;20372;-84
2023/05/25 03:13:10;;;;;;;8.30;4.05;;;11.50;99.30;;;;;;5075716;28;20027;-84
2023/05/25 03:15:36;;;;;;;8.60;4.63;;;11.50;99.30;;;;;;5061885;28;20040;-83
2023/05/25 03:18:01;;;;;;;7.13;4.13;;;11.50;99.30;;;;;;5063928;28;20036;-83
2023/05/25 03:20:27;;;;;;;6.53;3.60;;;11.50;99.30;;;;;;5068947;28;20032;-84
2023/05/25 03:22:54;;;;;;;7.30;3.67;;;11.50;99.30;;;;;;5067346;28;20049;-84
2023/05/25 03:25:20;;;;;;;7.90;4.03;;;11.60;99.30;;;;;;5077879;28;20092;-84
2023/05/25 03:27:46;;;;;;;7.70;3.90;;;11.50;99.30;;;;;;5097889;28;20484;-84
2023/05/25 03:30:15;;;;;;;7.97;4.00;;;11.50;99.20;;;;;;5077755;28;20070;-84
2023/05/25 03:32:40;;;;;;;9.13;4.30;;;11.50;99.20;;;;;;5079890;28;20027;-84
2023/05/25 03:35:06;;;;;;;8.25;4.63;;;11.50;99.30;;;;;;5083301;28;20243;-83
2023/05/25 03:37:32;;;;;;;11.88;4.68;;;11.40;99.30;;;;;;5071065;28;20024;-84
2023/05/25 03:39:58;;;;;;;9.90;4.32;;;11.40;99.40;;;;;;5058408;28;20479;-84
2023/05/25 03:42:23;;;;;;;10.63;4.72;;;11.40;99.50;;;;;;5069842;28;20029;-84
2023/05/25 03:44:49;;;;;;;11.80;4.60;;;11.40;99.50;;;;;;5073496;28;20379;-83
2023/05/25 03:47:15;;;;;;;7.35;3.97;;;11.40;99.60;;;;;;5057066;28;20024;-85
2023/05/25 03:49:40;;;;;;;8.82;4.10;;;11.40;99.60;;;;;;5057176;28;20540;-85
2023/05/25 03:52:06;;;;;;;8.95;3.95;;;11.40;99.60;;;;;;5062067;28;20067;-86
2023/05/25 03:54:32;;;;;;;9.82;4.25;;;11.40;99.60;;;;;;5057101;28;20380;-85
2023/05/25 03:56:58;;;;;;;7.43;4.32;;;11.40;99.60;;;;;;5054090;28;20523;-85
2023/05/25 03:59:24;;;;;;;8.40;3.97;;;11.40;99.70;;;;;;5057206;28;20032;-84
2023/05/25 04:01:50;;;;;;;7.32;3.88;;;11.40;99.70;;;;;;5056658;28;20039;-84
2023/05/25 04:04:16;;;;;;;9.88;4.72;;;11.40;99.80;;;;;;5055694;28;20036;-85
2023/05/25 04:06:44;;;;;;;8.25;4.13;;;11.40;99.80;;;;;;5061253;28;20025;-85
2023/05/25 04:09:11;;;;;;;9.38;4.47;;;11.40;99.80;;;;;;5081074;28;20072;-85
2023/05/25 04:11:39;;;;;;;10.13;4.55;;;11.40;99.90;;;;;;5054108;28;20025;-85
2023/05/25 04:14:05;;;;;;;7.82;4.38;;;11.40;99.90;;;;;;5043471;28;20408;-85
2023/05/25 04:16:31;;;;;;;8.05;4.32;;;11.40;99.90;;;;;;5080722;28;20097;-83
2023/05/25 04:18:56;;;;;;;9.13;4.40;;;11.40;99.90;;;;;;5072920;28;20040;-83
2023/05/25 04:21:22;;;;;;;10.02;5.55;;;11.40;99.90;;;;;;5048946;28;20028;-83
2023/05/25 04:23:48;;;;;;;9.93;4.82;;;11.40;99.90;;;;;;5048367;28;20061;-84
2023/05/25 04:26:17;;;;;;;11.48;4.95;;;11.40;99.90;;;;;;5063741;28;20039;-84
2023/05/25 04:28:44;;;;;;;10.48;4.60;;;11.40;99.90;;;;;;5058880;28;20132;-84
2023/05/25 04:31:12;;;;;;;10.90;5.05;;;11.40;99.90;;;;;;5086287;28;20029;-84
2023/05/25 04:33:37;;;;;;;10.93;5.15;;;11.40;99.90;;;;;;5067858;28;20052;-83
2023/05/25 04:36:04;;;;;;;9.95;4.30;;;11.40;99.90;;;;;;5063149;28;20483;-84
2023/05/25 04:38:32;;;;;;;9.50;4.78;;;11.40;99.90;;;;;;5068971;28;20044;-85
2023/05/25 04:41:05;;;;;;;10.05;4.57;;;11.50;99.90;;;;;;5055509;28;20029;-84
2023/05/25 04:43:31;;;;;;;9.00;4.55;;;11.50;99.90;;;;;;5070541;28;20024;-85
2023/05/25 04:45:58;;;;;;;8.95;4.10;;;11.50;99.90;;;;;;5062904;28;20037;-85
2023/05/25 04:48:27;;;;;;;9.15;4.38;;;11.50;99.90;;;;;;5060448;28;20036;-85
2023/05/25 04:50:54;;;;;;;10.07;4.78;;;11.60;99.90;;;;;;5062986;28;20491;-85
2023/05/25 04:53:21;;;;;;;11.60;5.05;;;11.60;99.90;;;;;;5054040;28;20035;-85
2023/05/25 04:55:48;;;;;;;13.38;4.90;;;11.60;99.90;;;;;;5070485;28;20365;-85
2023/05/25 04:58:14;;;;;;;9.25;4.45;;;11.70;99.90;;;;;;5055328;28;20460;-86
2023/05/25 05:00:39;;;;;;;8.77;4.72;;;11.70;99.90;;;;;;5062857;28;20068;-84
2023/05/25 05:03:05;;;;;;;9.30;4.10;;;11.70;99.90;;;;;;5058325;28;20461;-85
2023/05/25 05:05:31;;;;;;;9.63;4.55;;;11.80;99.90;;;;;;5094642;28;20076;-85
2023/05/25 05:08:02;;;;;;;11.73;5.30;;;11.90;99.90;;;;;;5079326;28;20020;-84
2023/05/25 05:10:28;;;;;;;11.13;5.60;;;11.80;99.90;;;;;;5075684;28;20049;-84
2023/05/25 05:12:54;;;;;;;9.80;5.25;;;11.90;99.90;;;;;;5090692;28;20055;-84
2023/05/25 05:15:20;;;;;;;10.57;4.82;;;11.90;99.90;;;;;;5073954;28;20025;-84
2023/05/25 05:17:47;;;;;;;15.00;5.68;;;11.90;99.90;;;;;;5064222;28;20037;-84
2023/05/25 05:20:13;;;;;;;11.43;5.55;;;11.90;99.90;;;;;;5081912;28;20048;-85
2023/05/25 05:22:39;;;;;;;9.73;5.22;;;11.90;99.90;;;;;;5055502;28;20411;-85
2023/05/25 05:25:06;;;;;;;16.83;6.30;;;11.90;99.90;;;;;;5073577;28;20036;-85
2023/05/25 05:27:32;;;;;;;12.40;5.28;;;11.90;99.90;;;;;;5073510;28;20017;-84
2023/05/25 05:29:58;;;;;;;13.50;5.72;;;11.90;99.90;;;;;;5065790;28;20029;-85
2023/05/25 05:32:23;;;;;;;14.73;6.20;;;11.90;99.90;;;;;;5072629;28;20052;-85
2023/05/25 05:34:49;;;;;;;12.70;5.93;;;11.90;99.90;;;;;;5051671;28;20056;-85
2023/05/25 05:37:15;;;;;;;12.20;5.22;;;12.00;99.90;;;;;;5050326;28;20404;-85
2023/05/25 05:39:40;;;;;;;9.27;4.50;;;12.10;99.90;;;;;;5053348;28;20471;-84
2023/05/25 05:42:07;;;;;;;11.05;5.25;;;12.10;99.90;;;;;;5051929;28;20055;-84
2023/05/25 05:44:32;;;;;;;9.75;5.00;;;12.10;99.90;;;;;;5051501;28;20021;-85
2023/05/25 05:47:04;;;;;;;15.15;6.40;;;12.10;99.90;;;;;;5055231;28;20078;-85
2023/05/25 05:49:30;;;;;;;9.75;6.15;;;12.10;99.90;;;;;;5066374;28;20090;-85
2023/05/25 05:51:56;;;;;;;10.75;5.07;;;12.10;99.90;;;;;;5062582;28;20032;-84
2023/05/25 05:54:22;;;;;;;16.77;6.28;;;12.20;99.90;;;;;;5055401;28;20755;-85
2023/05/25 05:56:49;;;;;;;12.75;6.88;;;12.20;99.90;;;;;;5073345;28;20472;-84
2023/05/25 05:59:14;;;;;;;12.45;5.30;;;12.20;99.90;;;;;;5072972;28;20029;-84
2023/05/25 06:01:41;;;;;;;9.52;5.35;;;12.20;99.90;;;;;;5072048;28;20020;-85
2023/05/25 06:04:07;;;;;;;13.35;5.30;;;12.30;99.90;;;;;;5058355;28;20131;-85
2023/05/25 06:06:37;;;;;;;11.82;5.95;;;12.30;99.90;;;;;;5075653;28;20040;-85
2023/05/25 06:09:05;;;;;;;11.25;5.88;;;12.40;99.90;;;;;;5075765;28;20042;-84
2023/05/25 06:11:34;;;;;;;10.15;5.32;;;12.40;99.90;;;;;;5072343;28;20066;-84
2023/05/25 06:14:00;;;;;;;14.60;6.05;;;12.50;99.90;;;;;;5071084;28;20024;-84
2023/05/25 06:16:25;;;;;;;15.10;5.85;;;12.60;99.90;;;;;;5072465;28;20400;-85
2023/05/25 06:18:51;;;;;;;12.43;5.38;;;12.70;99.90;;;;;;5073755;28;20037;-86
2023/05/25 06:21:17;;;;;;;12.18;4.80;;;12.70;99.90;;;;;;5074847;28;20029;-84
2023/05/25 06:23:46;;;;;;;10.88;4.95;;;12.80;99.90;;;;;;5066696;28;20048;-84
2023/05/25 06:26:12;;;;;;;10.95;4.95;;;12.90;99.90;;;;;;5055481;28;20448;-84
2023/05/25 06:28:37;;;;;;;10.98;4.88;;;12.90;99.90;;;;;;5061675;28;20460;-85
2023/05/25 06:31:03;;;;;;;11.23;5.15;;;13.00;99.90;;;;;;5073260;28;20016;-86
2023/05/25 06:33:30;;;;;;;14.30;5.15;;;13.00;99.90;;;;;;5068511;28;20383;-83
2023/05/25 06:35:59;;;;;;;12.57;5.00;;;13.10;99.90;;;;;;5060080;28;20042;-84
2023/05/25 06:38:25;;;;;;;10.82;4.50;;;13.10;99.90;;;;;;5078839;28;20047;-84
2023/05/25 06:40:51;;;;;;;14.07;4.57;;;13.20;99.90;;;;;;5074721;28;20019;-84
2023/05/25 06:43:17;;;;;;;13.15;4.63;;;13.30;99.90;;;;;;5083517;28;20009;-84
2023/05/25 06:45:43;;;;;;;10.52;4.78;;;13.30;99.90;;;;;;5083616;28;20025;-83
2023/05/25 06:48:14;;;;;;;13.07;5.85;;;13.40;99.90;;;;;;5093123;28;20031;-83
2023/05/25 06:50:41;;;;;;;9.55;4.40;;;13.40;99.90;;;;;;5086619;28;20021;-84
2023/05/25 06:53:06;;;;;;;12.75;4.68;;;13.40;99.90;;;;;;5055803;28;20087;-83
2023/05/25 06:55:32;;;;;;;13.68;4.78;;;13.50;99.90;;;;;;5055362;28;20022;-82
2023/05/25 06:57:58;;;;;;;8.43;4.03;;;13.50;99.90;;;;;;5078055;28;20025;-84
2023/05/25 07:00:24;;;;;;;8.15;4.68;;;13.60;99.90;;;;;;5058095;28;20029;-84
2023/05/25 07:02:50;;;;;;;14.80;5.18;;;13.80;99.90;;;;;;5074596;28;20043;-84
2023/05/25 07:05:15;;;;;;;11.43;4.68;;;13.80;99.90;;;;;;5057777;28;20028;-84
2023/05/25 07:07:43;;;;;;;10.55;4.65;;;13.90;99.90;;;;;;5068865;28;20025;-84
2023/05/25 07:10:09;;;;;;;12.50;4.68;;;14.00;99.90;;;;;;5052173;28;20031;-84
2023/05/25 07:12:35;;;;;;;13.00;4.85;;;14.20;99.90;;;;;;5044336;28;20026;-85
2023/05/25 07:15:01;;;;;;;11.18;5.45;;;14.20;99.90;;;;;;5053099;28;20178;-84
2023/05/25 07:17:27;;;;;;;12.60;4.95;;;14.20;99.80;;;;;;5055437;28;20029;-85
2023/05/25 07:19:53;;;;;;;12.45;4.18;;;14.30;99.80;;;;;;5054432;28;20159;-85
2023/05/25 07:22:19;;;;;;;10.18;4.07;;;14.40;99.70;;;;;;5097226;28;20111;-83
2023/05/25 07:24:45;;;;;;;9.43;4.30;;;14.40;99.50;;;;;;5074907;28;20044;-84
2023/05/25 07:27:12;;;;;;;9.45;3.63;;;14.40;99.50;;;;;;5074593;28;20025;-83
2023/05/25 07:29:39;;;;;;;10.93;4.47;;;14.50;99.40;;;;;;5053922;28;20036;-83
2023/05/25 07:32:05;;;;;;;9.93;3.95;;;14.60;99.50;;;;;;5054302;28;20376;-84
2023/05/25 07:34:33;;;;;;;10.55;4.18;;;14.70;99.20;;;;;;5053688;28;20467;-84
2023/05/25 07:36:58;;;;;;;9.85;3.88;;;14.70;98.90;;;;;;5058996;28;20111;-84
2023/05/25 07:39:24;;;;;;;11.25;4.07;;;14.80;98.80;;;;;;5037282;28;20516;-83
2023/05/25 07:41:53;;;;;;;7.50;4.03;;;14.80;98.60;;;;;;5054650;28;20088;-83
2023/05/25 07:44:19;;;;;;;10.27;3.95;;;14.90;98.70;;;;;;5056637;28;20025;-83
2023/05/25 07:46:44;;;;;;;10.45;4.10;;;14.90;98.60;;;;;;5057254;28;20518;-83
2023/05/25 07:49:14;;;;;;;11.57;4.00;;;15.00;98.50;;;;;;5062565;28;20036;-83
2023/05/25 07:51:44;;;;;;;10.38;4.32;;;15.00;98.30;;;;;;5037541;28;20028;-82
2023/05/25 07:54:10;;;;;;;10.60;4.20;;;15.00;98.00;;;;;;5074159;28;20123;-86
2023/05/25 07:56:39;;;;;;;10.40;3.60;;;15.00;98.10;;;;;;5074382;28;20033;-94
2023/05/25 07:59:05;;;;;;;12.40;4.45;;;15.10;97.90;;;;;;5075017;28;20036;-92
2023/05/25 08:01:31;;;;;;;9.93;4.15;;;15.00;97.40;;;;;;5070293;28;20074;-84
2023/05/25 08:03:56;;;;;;;8.98;3.70;;;15.00;97.40;;;;;;5057391;28;20036;-84
2023/05/25 08:06:23;;;;;;;8.45;2.90;;;15.10;97.50;;;;;;5061221;28;20036;-84
2023/05/25 08:08:48;;;;;;;10.88;3.50;;;15.20;97.90;;;;;;5059214;28;20031;-84
2023/05/25 08:11:15;;;;;;;9.40;4.10;;;15.30;97.60;;;;;;5074149;28;20380;-84
2023/05/25 08:13:42;;;;;;;8.57;3.92;;;15.40;97.40;;;;;;5075485;28;20031;-84
2023/05/25 08:16:08;;;;;;;10.07;3.63;;;15.40;97.30;;;;;;5057655;28;20020;-84
2023/05/25 08:18:34;;;;;;;13.50;4.72;;;15.50;97.30;;;;;;5042164;28;20033;-83
2023/05/25 08:21:00;;;;;;;12.07;4.43;;;15.50;96.70;;;;;;5088041;28;20017;-83
2023/05/25 08:23:25;;;;;;;8.98;3.20;;;15.50;96.60;;;;;;5081900;28;20121;-83
2023/05/25 08:25:52;;;;;;;10.07;3.83;;;15.60;96.60;;;;;;5081612;28;20029;-83
2023/05/25 08:28:19;;;;;;;9.13;3.10;;;15.60;96.20;;;;;;5080765;28;20025;-82
2023/05/25 08:30:45;;;;;;;10.10;3.63;;;15.50;96.10;;;;;;5089439;28;20021;-83
2023/05/25 08:33:11;;;;;;;6.65;2.70;;;15.60;96.30;;;;;;5057777;28;20032;-83
2023/05/25 08:35:39;;;;;;;7.35;3.53;;;15.60;96.40;;;;;;5046404;28;20023;-83
2023/05/25 08:38:05;;;;;;;9.23;4.18;;;15.70;96.30;;;;;;5073301;28;20020;-83
2023/05/25 08:40:31;;;;;;;8.98;3.65;;;15.70;96.40;;;;;;5061228;28;20029;-83
2023/05/25 08:42:57;;;;;;;9.80;3.67;;;15.70;96.00;;;;;;5056174;28;20377;-83
2023/05/25 08:45:22;;;;;;;9.75;4.03;;;15.70;95.80;;;;;;5067600;28;20024;-83
2023/05/25 08:47:52;;;;;;;12.13;4.18;;;15.70;95.70;;;;;;5066883;28;20029;-84
2023/05/25 08:50:19;;;;;;;15.13;4.38;;;15.70;95.60;;;;;;5072996;28;20418;-83
2023/05/25 08:52:48;;;;;;;8.70;3.55;;;15.70;95.70;;;;;;5072391;28;20031;-83
2023/05/25 08:55:17;;;;;;;8.05;3.53;;;15.80;95.80;;;;;;5072755;28;20525;-83
2023/05/25 08:57:58;;;;;;;9.57;3.72;;;15.90;95.90;;;;;;5072222;28;20478;-82
2023/05/25 09:00:44;;;;;;;;;;;15.90;95.60;;;;;;5072956;28;20166;-83
2023/05/25 09:03:14;;;;;;;8.23;3.47;;;16.10;95.60;;;;;;5060455;28;19915;-84
2023/05/25 09:05:41;;;;;;;9.75;3.75;;;16.10;95.60;;;;;;5057939;28;20025;-85
2023/05/25 09:08:07;;;;;;;11.25;4.18;;;16.10;95.30;;;;;;5054065;28;20028;-83
2023/05/25 09:10:37;;;;;;;8.10;3.90;;;16.20;95.30;;;;;;5069032;28;20040;-83
2023/05/25 09:13:03;;;;;;;11.53;3.80;;;16.20;95.30;;;;;;5052604;28;20388;-84
2023/05/25 09:15:32;;;;;;;11.80;3.90;;;16.20;95.10;;;;;;5068855;28;20366;-82
2023/05/25 09:17:58;;;;;;;10.65;4.15;;;16.30;95.30;;;;;;5056025;28;20085;-83
2023/05/25 09:20:30;;;;;;;9.82;3.88;;;16.30;95.20;;;;;;5055817;28;20423;-83
2023/05/25 09:22:59;;;;;;;9.48;3.50;;;16.40;95.10;;;;;;5072194;28;20052;-83
2023/05/25 09:25:29;;;;;;;7.57;3.22;;;16.40;95.00;;;;;;5073532;28;20103;-83
2023/05/25 09:27:59;;;;;;;11.32;3.83;;;16.50;95.00;;;;;;5056507;28;20032;-83
2023/05/25 09:30:31;;;;;;;11.07;3.65;;;16.60;94.50;;;;;;5055479;28;20063;-83
2023/05/25 09:33:11;;;;;;;8.48;3.38;;;16.60;93.80;;;;;;5073817;28;20024;-83
2023/05/25 09:35:37;;;;;;;9.07;3.35;;;16.60;93.80;;;;;;5042361;28;20021;-83
2023/05/25 09:38:03;;;;;;;8.65;3.67;;;16.50;93.80;;;;;;5068105;28;20025;-83
2023/05/25 09:40:40;;;;;;;9.27;3.75;;;16.60;93.80;;;;;;5068782;28;20033;-83
2023/05/25 09:43:06;;;;;;;7.35;3.28;;;16.70;93.80;;;;;;5052211;28;20372;-84
2023/05/25 09:45:31;;;;;;;9.07;3.72;;;16.80;93.70;;;;;;5085714;28;20024;-83
2023/05/25 09:47:58;;;;;;;9.80;3.90;;;16.80;93.70;;;;;;5081316;28;20052;-84
2023/05/25 09:50:32;;;;;;;9.75;3.50;;;16.80;93.60;;;;;;5072068;28;20530;-84
2023/05/25 09:52:59;;;;;;;8.52;3.85;;;16.80;93.30;;;;;;5055776;28;20526;-84
2023/05/25 09:55:29;;;;;;;8.93;4.40;;;16.90;93.40;;;;;;5072394;28;20044;-84
2023/05/25 09:57:55;;;;;;;6.90;3.45;;;16.90;92.90;;;;;;5067892;28;20056;-84
2023/05/25 10:00:22;;;;;;;7.15;3.30;;;16.80;93.00;;;;;;5072594;28;20068;-84
2023/05/25 10:02:48;;;;;;;9.48;3.90;;;16.80;93.10;;;;;;5072671;28;20499;-83
2023/05/25 10:05:14;;;;;;;7.40;3.00;;;16.80;93.00;;;;;;5068712;28;20017;-83
2023/05/25 10:07:44;;;;;;;8.40;3.30;;;16.90;93.20;;;;;;5060759;28;20013;-83
2023/05/25 10:10:14;;;;;;;6.00;2.72;;;17.00;93.20;;;;;;5077731;28;20073;-84
2023/05/25 10:12:41;;;;;;;6.33;3.00;;;17.10;93.10;;;;;;5093826;28;20047;-83
2023/05/25 10:15:09;;;;;;;7.60;3.83;;;17.20;93.00;;;;;;5090790;28;20291;-84
2023/05/25 10:17:42;;;;;;;9.10;3.88;;;17.30;92.80;;;;;;5052683;28;20154;-83
2023/05/25 10:20:09;;;;;;;8.75;3.70;;;17.30;92.80;;;;;;5052196;28;20029;-83
2023/05/25 10:22:48;;;;;;;8.23;3.42;;;17.40;93.00;;;;;;5051464;28;20061;-82
2023/05/25 10:25:19;;;;;;;6.85;3.00;;;17.50;93.10;;;;;;5054641;28;20049;-83
2023/05/25 10:28:05;;;;;;;7.55;2.95;;;17.60;92.90;;;;;;5068717;28;20465;-83
2023/05/25 10:30:32;;;;;;;6.50;3.03;;;17.80;92.20;;;;;;5061766;28;20024;-84
2023/05/25 10:32:59;;;;;;;5.68;2.50;;;17.80;91.80;;;;;;5071344;28;20107;-83
2023/05/25 10:35:25;;;;;;;7.68;3.10;;;17.90;92.00;;;;;;5054551;28;20380;-83
2023/05/25 10:37:52;;;;;;;6.68;3.75;;;17.90;91.80;;;;;;5071371;28;20066;-83
2023/05/25 10:40:22;;;;;;;6.88;3.20;;;17.90;91.60;;;;;;5071151;28;20123;-83
2023/05/25 10:42:50;;;;;;;5.85;2.50;;;17.90;91.40;;;;;;5072582;28;20024;-83
2023/05/25 10:45:16;;;;;;;4.97;2.58;;;17.90;91.50;;;;;;5071362;28;20025;-83
2023/05/25 10:47:42;;;;;;;8.65;3.28;;;17.90;91.50;;;;;;5063286;28;20033;-83
2023/05/25 10:50:21;;;;;;;6.05;3.05;;;18.00;91.40;;;;;;5047624;28;20024;-83
2023/05/25 10:53:00;;;;;;;5.47;2.53;;;17.90;91.30;;;;;;5056841;28;20581;-83
2023/05/25 10:55:40;;;;;;;9.32;3.35;;;18.00;91.20;;;;;;5061789;28;20029;-84
2023/05/25 10:58:11;;;;;;;6.73;2.90;;;17.90;90.40;;;;;;5072154;28;20036;-83
2023/05/25 11:00:37;;;;;;;6.00;2.97;;;17.90;90.40;;;;;;5074335;28;20036;-84
2023/05/25 11:03:03;;;;;;;3.95;2.00;;;17.90;90.60;;;;;;5054224;28;20106;-84
2023/05/25 11:05:39;;;;;;;7.13;3.10;;;18.00;90.80;;;;;;5068335;28;20033;-83
2023/05/25 11:08:07;;;;;;;6.00;3.00;;;18.10;90.50;;;;;;5055189;28;20021;-84
2023/05/25 11:10:53;;;;;;;5.97;3.10;;;18.20;90.10;;;;;;5088866;28;20064;-84
2023/05/25 11:13:31;;;;;;;5.53;3.03;;;18.10;89.70;;;;;;5064328;28;20131;-84
2023/05/25 11:16:19;;;;;;;5.47;3.00;;;18.10;90.00;;;;;;5065061;28;20033;-83
2023/05/25 11:18:53;;;;;;;5.07;2.20;;;18.20;89.60;;;;;;5067840;28;20025;-84
2023/05/25 11:21:25;;;;;;;7.88;2.50;;;18.10;89.50;;;;;;5074419;28;20027;-84
2023/05/25 11:24:13;;;;;;;5.45;2.72;;;18.20;89.50;;;;;;5073319;28;20610;-84
2023/05/25 11:26:56;;;;;;;4.80;2.67;;;18.20;89.10;;;;;;5070447;28;20482;-84
2023/05/25 11:29:24;;;;;;;6.07;2.50;;;18.20;89.60;;;;;;5074348;28;20033;-84
2023/05/25 11:31:54;;;;;;;5.18;2.60;;;18.20;89.60;;;;;;5057941;28;20017;-83
2023/05/25 11:34:23;;;;;;;6.63;2.80;;;18.20;89.60;;;;;;5075961;28;20083;-83
2023/05/25 11:36:53;;;;;;;8.00;3.03;;;18.20;89.90;;;;;;5069266;28;20029;-83
2023/05/25 11:39:21;;;;;;;9.40;3.85;;;18.10;90.00;;;;;;5065139;28;20472;-84
2023/05/25 11:41:50;;;;;;;6.18;2.60;;;18.10;89.70;;;;;;5054775;28;20037;-84
2023/05/25 11:44:26;;;;;;;5.40;2.50;;;18.00;89.80;;;;;;5064753;28;20388;-84
2023/05/25 11:46:56;;;;;;;6.78;2.97;;;18.00;89.90;;;;;;5040442;28;20531;-83
2023/05/25 11:49:23;;;;;;;8.90;2.72;;;18.00;89.50;;;;;;5065404;28;20031;-85
2023/05/25 11:51:49;;;;;;;6.10;2.80;;;18.00;89.60;;;;;;5068123;28;20086;-83
2023/05/25 11:54:27;;;;;;;7.35;3.10;;;18.00;89.10;;;;;;5067344;28;20025;-85
2023/05/25 11:56:58;;;;;;;6.38;2.50;;;18.20;88.20;;;;;;5089819;28;20001;-83
2023/05/25 11:59:25;;;;;;;;;;;18.20;87.90;;;;;;5090275;28;20021;-83
2023/05/25 12:01:58;;;;;;;6.15;2.70;;;18.20;87.60;;;;;;5084575;28;19908;-84
2023/05/25 12:04:23;;;;;;;5.28;2.70;;;18.20;87.70;;;;;;5052203;28;20029;-85
2023/05/25 12:06:49;;;;;;;6.22;3.00;;;18.20;88.10;;;;;;5065128;28;20043;-85
2023/05/25 12:09:22;;;;;;;6.20;3.20;;;18.20;88.10;;;;;;5075943;28;20103;-85
2023/05/25 12:11:48;;;;;;;4.90;2.90;;;18.30;88.40;;;;;;5064391;28;20027;-85
2023/05/25 12:14:14;;;;;;;6.28;2.80;;;18.30;87.70;;;;;;5078193;28;20021;-85
2023/05/25 12:16:40;;;;;;;5.75;2.80;;;18.30;87.60;;;;;;5075612;28;20029;-85
2023/05/25 12:19:07;;;;;;;5.15;2.60;;;18.40;87.20;;;;;;5061440;28;20524;-85
2023/05/25 12:21:33;;;;;;;6.88;2.83;;;18.40;87.50;;;;;;5067831;28;20564;-86
2023/05/25 12:24:00;;;;;;;7.45;3.13;;;18.50;87.00;;;;;;5074042;28;20049;-86
2023/05/25 12:26:27;;;;;;;5.65;2.60;;;18.60;86.40;;;;;;5067379;28;20052;-86
2023/05/25 12:29:05;;;;;;;6.35;2.95;;;18.60;86.80;;;;;;5090692;28;20048;-85
2023/05/25 12:31:33;;;;;;;4.68;2.70;;;18.70;87.60;;;;;;5074913;28;20024;-84
2023/05/25 12:34:15;;;;;;;5.75;3.10;;;18.70;87.80;;;;;;5073905;28;20086;-84
2023/05/25 12:36:52;;;;;;;10.55;3.30;;;18.80;87.40;;;;;;5072926;28;20017;-85
2023/05/25 12:39:30;;;;;;;6.85;3.00;;;18.80;86.60;;;;;;5070826;28;20036;-85
2023/05/25 12:42:03;;;;;;;7.15;3.13;;;18.80;86.00;;;;;;5073445;28;20138;-85
2023/05/25 12:44:34;;;;;;;6.13;3.20;;;18.70;86.10;;;;;;5056854;28;20388;-85
2023/05/25 12:47:18;;;;;;;5.80;2.65;;;18.70;86.00;;;;;;5056041;28;20027;-85
2023/05/25 12:49:50;;;;;;;6.13;2.72;;;18.70;86.30;;;;;;5074442;28;20157;-85
2023/05/25 12:52:42;;;;;;;7.75;3.20;;;18.70;85.10;;;;;;5072623;28;20043;-85